Time;durP1;ratioP1;P1;durP2;ratioP2;P2;SDS_P1;SDS_P2;PMS_P1;PMS_P2;Temp;Humidity;BMP_temperature;BMP_pressure;BME280_temperature;BME280_humidity;BME280_pressure;Samples;Min_cycle;Max_cycle;Signal;HPM_P1;HPM_P2
2021/01/13 00:00:40;;;;;;;26.63;17.63;;;;;;;;;;5059711;28;20595;-71
2021/01/13 00:03:07;;;;;;;24.63;16.03;;;;;;;;;;5059163;28;20457;-71
2021/01/13 00:05:33;;;;;;;27.67;16.50;;;;;;;;;;5059383;28;20548;-71
2021/01/13 00:08:00;;;;;;;28.10;16.60;;;;;;;;;;5059891;28;20522;-71
2021/01/13 00:10:27;;;;;;;25.87;16.47;;;;;;;;;;5059732;28;20522;-71
2021/01/13 00:12:54;;;;;;;27.50;16.60;;;;;;;;;;5059413;28;20569;-71
2021/01/13 00:15:22;;;;;;;26.93;15.90;;;;;;;;;;5059550;28;20472;-71
2021/01/13 00:17:50;;;;;;;26.23;16.57;;;;;;;;;;5059445;28;20449;-71
2021/01/13 00:20:17;;;;;;;24.43;15.47;;;;;;;;;;5059135;28;20466;-71
2021/01/13 00:22:45;;;;;;;28.90;15.90;;;;;;;;;;5059345;28;20446;-71
2021/01/13 00:25:14;;;;;;;22.40;15.23;;;;;;;;;;5059205;28;20900;-71
2021/01/13 00:27:41;;;;;;;26.73;16.17;;;;;;;;;;5059017;28;20450;-71
2021/01/13 00:30:08;;;;;;;26.70;16.00;;;;;;;;;;5059384;28;20449;-71
2021/01/13 00:32:36;;;;;;;28.13;16.27;;;;;;;;;;5059332;28;20905;-71
2021/01/13 00:35:03;;;;;;;25.17;15.33;;;;;;;;;;5058927;28;20476;-70
2021/01/13 00:37:30;;;;;;;24.73;14.97;;;;;;;;;;5059167;28;20556;-71
2021/01/13 00:39:57;;;;;;;24.37;15.20;;;;;;;;;;5059316;28;20447;-71
2021/01/13 00:42:24;;;;;;;27.37;16.00;;;;;;;;;;5058658;28;20457;-71
2021/01/13 00:44:51;;;;;;;24.03;15.50;;;;;;;;;;5058827;28;20871;-71
2021/01/13 00:47:18;;;;;;;23.70;15.53;;;;;;;;;;5058830;28;20521;-71
2021/01/13 00:49:46;;;;;;;22.67;14.03;;;;;;;;;;5058774;28;20450;-71
2021/01/13 00:52:13;;;;;;;25.63;14.77;;;;;;;;;;5058939;28;20449;-70
2021/01/13 00:54:40;;;;;;;26.37;15.27;;;;;;;;;;5058756;28;20564;-71
2021/01/13 00:57:08;;;;;;;24.40;15.40;;;;;;;;;;5058711;28;20456;-71
2021/01/13 00:59:35;;;;;;;21.07;13.90;;;;;;;;;;5058588;28;20545;-70
2021/01/13 01:02:02;;;;;;;24.63;14.23;;;;;;;;;;5058604;28;20800;-70
2021/01/13 01:04:29;;;;;;;27.13;14.80;;;;;;;;;;5058319;28;20503;-71
2021/01/13 01:07:02;;;;;;;28.00;16.53;;;;;;;;;;5058559;28;20532;-71
2021/01/13 01:09:29;;;;;;;24.60;15.07;;;;;;;;;;5058711;28;20973;-71
2021/01/13 01:11:58;;;;;;;28.53;15.87;;;;;;;;;;5058457;28;20455;-71
2021/01/13 01:14:25;;;;;;;24.80;15.00;;;;;;;;;;5058351;28;20572;-71
2021/01/13 01:16:52;;;;;;;24.50;15.23;;;;;;;;;;5058173;28;20999;-70
2021/01/13 01:19:19;;;;;;;22.33;14.00;;;;;;;;;;5058104;28;20430;-71
2021/01/13 01:21:46;;;;;;;24.60;13.20;;;;;;;;;;5058178;28;20901;-71
2021/01/13 01:24:14;;;;;;;20.17;13.07;;;;;;;;;;5058110;28;20488;-71
2021/01/13 01:26:44;;;;;;;24.27;14.63;;;;;;;;;;5058225;28;20504;-71
2021/01/13 01:29:11;;;;;;;20.03;12.80;;;;;;;;;;5058271;28;20450;-70
2021/01/13 01:31:38;;;;;;;22.13;13.10;;;;;;;;;;5058037;28;20484;-70
2021/01/13 01:34:05;;;;;;;22.67;13.47;;;;;;;;;;5057707;28;20485;-70
2021/01/13 01:36:32;;;;;;;20.43;12.77;;;;;;;;;;5058217;28;20445;-70
2021/01/13 01:38:59;;;;;;;21.23;13.10;;;;;;;;;;5057848;28;20564;-70
2021/01/13 01:41:27;;;;;;;20.10;11.40;;;;;;;;;;5057663;28;20456;-70
2021/01/13 01:43:54;;;;;;;19.57;11.60;;;;;;;;;;5057997;28;20520;-70
2021/01/13 01:46:23;;;;;;;20.90;11.13;;;;;;;;;;5057932;28;20434;-70
2021/01/13 01:48:51;;;;;;;20.60;12.23;;;;;;;;;;5057717;28;20464;-70
2021/01/13 01:51:23;;;;;;;16.67;11.10;;;;;;;;;;5058003;28;20449;-70
2021/01/13 01:53:56;;;;;;;14.97;10.83;;;;;;;;;;5057713;28;21008;-70
2021/01/13 01:56:24;;;;;;;16.67;11.30;;;;;;;;;;5057940;28;20460;-70
2021/01/13 01:59:00;;;;;;;17.17;11.27;;;;;;;;;;5057763;28;20814;-70
2021/01/13 02:01:30;;;;;;;17.53;11.00;;;;;;;;;;5057917;28;20484;-70
2021/01/13 02:04:00;;;;;;;16.33;10.43;;;;;;;;;;5057480;28;20452;-70
2021/01/13 02:06:31;;;;;;;17.43;10.70;;;;;;;;;;5057868;28;20517;-70
2021/01/13 02:08:58;;;;;;;15.67;10.93;;;;;;;;;;5057574;28;20473;-70
2021/01/13 02:11:28;;;;;;;19.93;12.20;;;;;;;;;;5057458;28;20459;-70
2021/01/13 02:13:56;;;;;;;18.53;10.57;;;;;;;;;;5057453;28;21075;-70
2021/01/13 02:16:24;;;;;;;16.77;11.03;;;;;;;;;;5057676;28;20454;-70
2021/01/13 02:18:51;;;;;;;15.20;11.17;;;;;;;;;;5057228;28;20887;-70
2021/01/13 02:21:18;;;;;;;16.20;10.60;;;;;;;;;;5057614;28;20445;-70
2021/01/13 02:23:47;;;;;;;15.67;10.00;;;;;;;;;;5057723;28;20441;-70
2021/01/13 02:26:44;;;;;;;14.50;10.43;;;;;;;;;;5057460;28;20540;-70
2021/01/13 02:29:16;;;;;;;14.90;9.97;;;;;;;;;;5061717;28;20445;-70
2021/01/13 02:31:54;;;;;;;16.23;10.37;;;;;;;;;;5061636;28;20473;-70
2021/01/13 02:34:40;;;;;;;15.90;9.93;;;;;;;;;;5060867;28;20515;-70
2021/01/13 02:37:27;;;;;;;17.00;11.13;;;;;;;;;;5061303;28;20528;-70
2021/01/13 02:39:56;;;;;;;17.37;10.53;;;;;;;;;;5061494;28;20450;-70
2021/01/13 02:42:24;;;;;;;14.83;9.83;;;;;;;;;;5060897;28;20461;-70
2021/01/13 02:44:59;;;;;;;15.30;10.67;;;;;;;;;;5061406;28;20825;-70
2021/01/13 02:47:32;;;;;;;13.90;9.00;;;;;;;;;;5061104;28;20451;-70
2021/01/13 02:50:00;;;;;;;15.33;10.30;;;;;;;;;;5061125;28;20512;-70
2021/01/13 02:52:31;;;;;;;15.93;10.33;;;;;;;;;;5061008;28;20461;-71
2021/01/13 02:55:03;;;;;;;17.40;10.80;;;;;;;;;;5061147;28;20497;-70
2021/01/13 02:57:30;;;;;;;15.57;10.63;;;;;;;;;;5060783;28;20886;-70
2021/01/13 02:59:58;;;;;;;18.63;10.57;;;;;;;;;;5061130;28;20517;-70
2021/01/13 03:02:34;;;;;;;17.53;10.80;;;;;;;;;;5060838;28;20437;-70
2021/01/13 03:05:01;;;;;;;14.00;10.67;;;;;;;;;;5060647;28;20465;-70
2021/01/13 03:07:34;;;;;;;17.93;11.27;;;;;;;;;;5060835;28;21024;-70
2021/01/13 03:10:06;;;;;;;15.53;9.97;;;;;;;;;;5060866;28;20449;-70
2021/01/13 03:12:33;;;;;;;12.90;9.03;;;;;;;;;;5061093;28;20455;-70
2021/01/13 03:15:01;;;;;;;15.93;10.63;;;;;;;;;;5060816;28;20497;-70
2021/01/13 03:17:41;;;;;;;17.53;11.03;;;;;;;;;;5060821;28;20448;-70
2021/01/13 03:20:19;;;;;;;15.57;10.73;;;;;;;;;;5060189;28;20460;-70
2021/01/13 03:22:50;;;;;;;16.47;10.10;;;;;;;;;;5060659;28;20441;-70
2021/01/13 03:25:19;;;;;;;14.20;10.43;;;;;;;;;;5060594;28;20468;-70
2021/01/13 03:27:47;;;;;;;14.37;9.73;;;;;;;;;;5060198;28;20864;-70
2021/01/13 03:30:17;;;;;;;15.33;10.70;;;;;;;;;;5060264;28;21004;-70
2021/01/13 03:33:02;;;;;;;13.17;9.80;;;;;;;;;;5060222;28;20441;-70
2021/01/13 03:35:36;;;;;;;17.00;9.80;;;;;;;;;;5060289;28;20550;-70
2021/01/13 03:38:03;;;;;;;11.37;9.17;;;;;;;;;;5058912;28;21039;-70
2021/01/13 03:40:31;;;;;;;14.03;9.80;;;;;;;;;;5060457;28;20509;-70
2021/01/13 03:42:59;;;;;;;13.23;9.57;;;;;;;;;;5059918;28;20464;-70
2021/01/13 03:45:35;;;;;;;13.60;9.00;;;;;;;;;;5060038;28;20493;-70
2021/01/13 03:48:08;;;;;;;15.27;9.70;;;;;;;;;;5060069;28;20512;-69
2021/01/13 03:50:37;;;;;;;20.77;10.90;;;;;;;;;;5059875;28;20995;-70
2021/01/13 03:53:05;;;;;;;12.47;8.67;;;;;;;;;;5059987;28;20533;-70
2021/01/13 03:55:32;;;;;;;13.63;9.00;;;;;;;;;;5059638;28;20461;-70
2021/01/13 03:58:17;;;;;;;12.83;8.50;;;;;;;;;;5059764;28;20591;-70
2021/01/13 04:00:57;;;;;;;13.03;8.77;;;;;;;;;;5060291;28;20451;-70
2021/01/13 04:03:26;;;;;;;13.07;8.37;;;;;;;;;;5056183;28;20524;-70
2021/01/13 04:06:02;;;;;;;9.93;7.30;;;;;;;;;;5059619;28;20955;-70
2021/01/13 04:08:33;;;;;;;13.00;8.80;;;;;;;;;;5059697;28;20523;-70
2021/01/13 04:11:01;;;;;;;11.00;8.43;;;;;;;;;;5050737;28;20450;-70
2021/01/13 04:13:34;;;;;;;14.00;7.70;;;;;;;;;;5059290;28;20466;-70
2021/01/13 04:16:02;;;;;;;9.50;7.10;;;;;;;;;;5059803;28;20461;-70
2021/01/13 04:18:29;;;;;;;12.63;7.63;;;;;;;;;;5059234;28;20521;-70
2021/01/13 04:20:59;;;;;;;13.63;8.87;;;;;;;;;;5059465;28;20810;-70
2021/01/13 04:23:27;;;;;;;9.57;7.20;;;;;;;;;;5060114;28;20450;-70
2021/01/13 04:25:54;;;;;;;9.97;7.53;;;;;;;;;;5059479;28;20473;-70
2021/01/13 04:28:21;;;;;;;10.93;7.60;;;;;;;;;;5059328;28;20448;-70
2021/01/13 04:30:49;;;;;;;11.70;7.67;;;;;;;;;;5059543;28;20467;-70
2021/01/13 04:33:17;;;;;;;11.07;7.57;;;;;;;;;;5060381;28;20972;-71
2021/01/13 04:35:44;;;;;;;10.23;6.40;;;;;;;;;;5060468;28;20461;-70
2021/01/13 04:38:11;;;;;;;9.03;6.70;;;;;;;;;;5059327;28;20477;-70
2021/01/13 04:40:39;;;;;;;14.13;8.33;;;;;;;;;;5059489;28;20516;-70
2021/01/13 04:43:07;;;;;;;8.77;7.17;;;;;;;;;;5059166;28;20921;-70
2021/01/13 04:45:39;;;;;;;11.63;8.17;;;;;;;;;;5058933;28;20548;-70
2021/01/13 04:48:07;;;;;;;12.10;7.87;;;;;;;;;;5058624;28;20476;-70
2021/01/13 04:50:36;;;;;;;11.13;7.97;;;;;;;;;;5058632;28;20520;-70
2021/01/13 04:53:10;;;;;;;11.37;7.40;;;;;;;;;;5059172;28;20484;-70
2021/01/13 04:55:44;;;;;;;9.33;6.70;;;;;;;;;;5058509;28;20554;-70
2021/01/13 04:58:38;;;;;;;10.17;6.93;;;;;;;;;;5058853;28;20446;-70
2021/01/13 05:01:22;;;;;;;9.20;7.23;;;;;;;;;;5058656;28;20472;-70
2021/01/13 05:03:51;;;;;;;8.60;6.20;;;;;;;;;;5058485;28;20445;-70
2021/01/13 05:06:46;;;;;;;10.40;6.83;;;;;;;;;;5058515;28;20429;-70
2021/01/13 05:09:13;;;;;;;9.13;6.13;;;;;;;;;;5058753;28;20528;-70
2021/01/13 05:11:41;;;;;;;9.13;6.80;;;;;;;;;;5058475;28;20996;-70
2021/01/13 05:14:09;;;;;;;12.13;7.20;;;;;;;;;;5058503;28;20481;-70
2021/01/13 05:17:03;;;;;;;9.23;7.07;;;;;;;;;;5061545;28;20469;-71
2021/01/13 05:19:55;;;;;;;12.73;6.90;;;;;;;;;;5014158;28;20449;-71
2021/01/13 05:22:25;;;;;;;10.37;7.43;;;;;;;;;;5059260;28;20441;-71
2021/01/13 05:25:01;;;;;;;12.30;6.77;;;;;;;;;;5056717;28;20457;-71
2021/01/13 05:27:42;;;;;;;11.27;7.00;;;;;;;;;;5057141;28;20940;-70
2021/01/13 05:30:10;;;;;;;11.83;7.03;;;;;;;;;;5056861;28;20891;-71
2021/01/13 05:32:39;;;;;;;9.67;7.10;;;;;;;;;;5056870;28;20532;-71
2021/01/13 05:35:07;;;;;;;11.83;6.87;;;;;;;;;;5056200;28;20843;-71
2021/01/13 05:37:47;;;;;;;8.97;6.27;;;;;;;;;;5054303;28;20492;-71
2021/01/13 05:40:15;;;;;;;10.93;6.27;;;;;;;;;;5060174;28;20450;-71
2021/01/13 05:42:45;;;;;;;10.47;5.93;;;;;;;;;;5057378;28;20453;-70
2021/01/13 05:45:12;;;;;;;9.40;6.57;;;;;;;;;;5057031;28;20460;-70
2021/01/13 05:47:51;;;;;;;8.60;5.70;;;;;;;;;;5057402;28;20446;-70
2021/01/13 05:50:19;;;;;;;11.13;6.70;;;;;;;;;;5057923;28;20491;-70
2021/01/13 05:52:48;;;;;;;10.60;6.67;;;;;;;;;;5057497;28;20473;-70
2021/01/13 05:55:16;;;;;;;7.60;6.17;;;;;;;;;;5057312;28;20919;-70
2021/01/13 05:57:56;;;;;;;10.50;6.77;;;;;;;;;;5057837;28;20473;-71
2021/01/13 06:00:24;;;;;;;9.10;6.53;;;;;;;;;;5057721;28;20502;-71
2021/01/13 06:02:56;;;;;;;9.47;6.43;;;;;;;;;;5057017;28;20445;-71
2021/01/13 06:05:24;;;;;;;10.13;6.17;;;;;;;;;;5057313;28;20544;-71
2021/01/13 06:07:52;;;;;;;11.43;7.23;;;;;;;;;;5058460;28;20434;-71
2021/01/13 06:10:20;;;;;;;10.40;6.83;;;;;;;;;;5055824;28;20440;-72
2021/01/13 06:12:49;;;;;;;11.27;7.23;;;;;;;;;;5055144;28;21188;-71
2021/01/13 06:15:22;;;;;;;8.80;6.63;;;;;;;;;;5056319;28;20477;-72
2021/01/13 06:17:50;;;;;;;9.37;5.87;;;;;;;;;;5057004;28;20446;-72
2021/01/13 06:20:19;;;;;;;9.03;6.67;;;;;;;;;;5057071;28;20508;-72
2021/01/13 06:22:47;;;;;;;10.70;6.13;;;;;;;;;;5057184;28;20446;-71
2021/01/13 06:25:20;;;;;;;11.40;7.03;;;;;;;;;;5057061;28;20465;-72
2021/01/13 06:27:51;;;;;;;9.63;6.90;;;;;;;;;;5056845;28;20446;-72
2021/01/13 06:30:18;;;;;;;9.67;7.03;;;;;;;;;;5056959;28;20489;-71
2021/01/13 06:32:53;;;;;;;11.70;6.53;;;;;;;;;;5056602;28;20445;-71
2021/01/13 06:35:35;;;;;;;10.07;6.40;;;;;;;;;;5055309;28;20481;-72
2021/01/13 06:38:06;;;;;;;9.57;6.43;;;;;;;;;;5056310;28;20467;-70
2021/01/13 06:40:33;;;;;;;9.07;6.00;;;;;;;;;;5056653;28;20445;-73
2021/01/13 06:43:10;;;;;;;10.13;6.67;;;;;;;;;;5056552;28;20453;-72
2021/01/13 06:45:37;;;;;;;8.43;5.70;;;;;;;;;;5056554;28;20997;-71
2021/01/13 06:48:04;;;;;;;10.27;6.70;;;;;;;;;;5054848;28;20520;-73
2021/01/13 06:50:35;;;;;;;10.17;8.17;;;;;;;;;;5056697;28;20449;-72
2021/01/13 06:53:06;;;;;;;9.07;5.97;;;;;;;;;;5055066;28;21182;-73
2021/01/13 06:55:34;;;;;;;10.57;6.23;;;;;;;;;;5053744;28;20505;-70
2021/01/13 06:58:09;;;;;;;7.50;5.33;;;;;;;;;;5053273;28;20461;-71
2021/01/13 07:00:36;;;;;;;11.43;6.33;;;;;;;;;;5056241;28;20531;-71
2021/01/13 07:03:19;;;;;;;11.03;6.03;;;;;;;;;;5048100;28;20446;-73
2021/01/13 07:05:49;;;;;;;9.23;6.27;;;;;;;;;;5051416;28;20556;-74
2021/01/13 07:08:19;;;;;;;8.00;5.13;;;;;;;;;;5056361;28;20468;-72
2021/01/13 07:10:47;;;;;;;15.20;8.53;;;;;;;;;;5056524;28;20937;-72
2021/01/13 07:13:15;;;;;;;9.77;6.93;;;;;;;;;;5057961;28;20503;-72
2021/01/13 07:15:44;;;;;;;10.43;7.03;;;;;;;;;;5059861;28;20492;-72
2021/01/13 07:18:12;;;;;;;12.53;6.53;;;;;;;;;;5059709;28;20445;-74
2021/01/13 07:20:40;;;;;;;12.77;6.33;;;;;;;;;;5060210;28;20446;-75
2021/01/13 07:23:07;;;;;;;9.57;6.30;;;;;;;;;;5059764;28;20445;-74
2021/01/13 07:25:37;;;;;;;10.60;7.40;;;;;;;;;;5059962;28;20870;-73
2021/01/13 07:28:06;;;;;;;19.00;14.07;;;;;;;;;;5059882;28;20449;-75
2021/01/13 07:30:33;;;;;;;15.53;9.93;;;;;;;;;;5059753;28;20500;-75
2021/01/13 07:33:07;;;;;;;15.53;9.10;;;;;;;;;;5059772;28;20597;-74
2021/01/13 07:35:38;;;;;;;14.10;7.67;;;;;;;;;;5059390;28;20489;-74
2021/01/13 07:38:12;;;;;;;9.17;6.80;;;;;;;;;;5059542;28;20511;-75
2021/01/13 07:40:49;;;;;;;9.57;6.13;;;;;;;;;;5056346;28;20532;-73
2021/01/13 07:43:24;;;;;;;10.13;7.00;;;;;;;;;;5051160;28;20878;-73
2021/01/13 07:45:52;;;;;;;9.23;6.27;;;;;;;;;;5059385;28;20976;-72
2021/01/13 07:48:33;;;;;;;11.63;7.70;;;;;;;;;;5059259;28;20449;-72
2021/01/13 07:51:06;;;;;;;10.23;6.93;;;;;;;;;;5048067;28;20536;-72
2021/01/13 07:53:35;;;;;;;14.50;7.47;;;;;;;;;;5059317;28;20517;-72
2021/01/13 07:56:03;;;;;;;9.73;5.97;;;;;;;;;;5058878;28;20481;-72
2021/01/13 07:58:32;;;;;;;11.70;7.90;;;;;;;;;;5059313;28;20445;-72
2021/01/13 08:01:26;;;;;;;15.30;6.90;;;;;;;;;;5059401;28;20445;-72
2021/01/13 08:04:17;;;;;;;10.90;6.70;;;;;;;;;;5059117;28;20445;-72
2021/01/13 08:06:47;;;;;;;9.37;6.53;;;;;;;;;;5059304;28;20453;-72
2021/01/13 08:09:18;;;;;;;13.13;7.10;;;;;;;;;;5059145;28;20452;-72
2021/01/13 08:12:18;;;;;;;7.27;6.27;;;;;;;;;;5058889;28;20449;-72
2021/01/13 08:15:01;;;;;;;9.97;6.57;;;;;;;;;;5047252;28;20865;-73
2021/01/13 08:17:37;;;;;;;11.07;7.10;;;;;;;;;;5050259;28;20924;-73
2021/01/13 08:20:26;;;;;;;10.60;7.33;;;;;;;;;;5058775;28;20451;-73
2021/01/13 08:22:59;;;;;;;9.80;6.83;;;;;;;;;;5059103;28;20487;-72
2021/01/13 08:25:27;;;;;;;9.57;7.00;;;;;;;;;;5057659;28;20466;-72
2021/01/13 08:27:57;;;;;;;12.90;6.97;;;;;;;;;;5057879;28;20450;-72
2021/01/13 08:30:30;;;;;;;10.90;6.57;;;;;;;;;;5056165;28;20437;-72
2021/01/13 08:32:57;;;;;;;9.27;6.20;;;;;;;;;;5058291;28;20511;-72
2021/01/13 08:35:34;;;;;;;12.10;6.87;;;;;;;;;;5057867;28;20534;-72
2021/01/13 08:38:06;;;;;;;13.90;9.10;;;;;;;;;;5056347;28;20923;-74
2021/01/13 08:40:37;;;;;;;14.00;8.20;;;;;;;;;;5058385;28;21002;-74
2021/01/13 08:43:08;;;;;;;10.47;7.70;;;;;;;;;;5057513;28;20480;-74
2021/01/13 08:45:38;;;;;;;8.80;6.07;;;;;;;;;;5058443;28;20474;-74
2021/01/13 08:48:06;;;;;;;12.40;6.30;;;;;;;;;;5055538;28;20445;-73
2021/01/13 08:50:34;;;;;;;12.80;7.37;;;;;;;;;;5057344;28;20445;-73
2021/01/13 08:53:02;;;;;;;11.00;7.43;;;;;;;;;;5057965;28;20437;-73
2021/01/13 08:55:30;;;;;;;10.90;6.73;;;;;;;;;;5055214;28;20519;-73
2021/01/13 08:58:04;;;;;;;11.53;6.83;;;;;;;;;;5057735;28;20496;-74
2021/01/13 09:00:32;;;;;;;11.53;7.23;;;;;;;;;;5055324;28;21021;-74
2021/01/13 09:03:07;;;;;;;11.83;7.37;;;;;;;;;;5050694;28;20781;-74
2021/01/13 09:05:35;;;;;;;11.80;8.00;;;;;;;;;;5047730;28;20468;-74
2021/01/13 09:08:04;;;;;;;12.60;8.17;;;;;;;;;;5057770;28;20239;-74
2021/01/13 09:10:45;;;;;;;10.70;7.37;;;;;;;;;;5058262;28;20450;-74
2021/01/13 09:13:32;;;;;;;13.03;8.13;;;;;;;;;;5057791;28;21024;-74
2021/01/13 09:16:19;;;;;;;10.63;7.80;;;;;;;;;;5057381;28;20503;-74
2021/01/13 09:18:54;;;;;;;9.67;6.97;;;;;;;;;;5057666;28;20210;-74
2021/01/13 09:21:28;;;;;;;11.90;7.20;;;;;;;;;;5057669;28;20457;-74
2021/01/13 09:23:56;;;;;;;12.20;8.23;;;;;;;;;;5057849;28;20203;-74
2021/01/13 09:26:27;;;;;;;11.47;7.90;;;;;;;;;;5057653;28;20203;-74
2021/01/13 09:28:57;;;;;;;12.70;7.47;;;;;;;;;;5057568;28;20207;-74
2021/01/13 09:31:25;;;;;;;16.63;8.97;;;;;;;;;;5057705;28;20445;-74
2021/01/13 09:33:52;;;;;;;17.13;9.50;;;;;;;;;;5056899;28;20206;-74
2021/01/13 09:36:21;;;;;;;14.70;9.57;;;;;;;;;;5056444;28;20487;-74
2021/01/13 09:38:48;;;;;;;14.07;9.63;;;;;;;;;;5057077;28;20352;-71
2021/01/13 09:41:34;;;;;;;16.30;9.37;;;;;;;;;;5057242;28;20293;-72
2021/01/13 09:44:12;;;;;;;11.90;8.50;;;;;;;;;;5057160;28;20213;-72
2021/01/13 09:46:39;;;;;;;12.80;8.80;;;;;;;;;;5057165;28;20649;-72
2021/01/13 09:49:07;;;;;;;16.03;9.57;;;;;;;;;;5056245;28;20213;-71
2021/01/13 09:51:36;;;;;;;14.43;9.13;;;;;;;;;;5056649;28;20202;-72
2021/01/13 09:54:04;;;;;;;14.07;8.73;;;;;;;;;;5056712;28;20205;-73
2021/01/13 09:56:32;;;;;;;13.17;8.83;;;;;;;;;;5056588;28;20555;-72
2021/01/13 09:59:01;;;;;;;12.00;8.37;;;;;;;;;;5056541;28;20254;-72
2021/01/13 10:01:29;;;;;;;12.17;8.37;;;;;;;;;;5054259;28;20450;-72
2021/01/13 10:03:57;;;;;;;17.93;12.63;;;;;;;;;;5056766;28;20202;-72
2021/01/13 10:06:26;;;;;;;15.50;10.00;;;;;;;;;;5056920;28;20250;-72
2021/01/13 10:09:15;;;;;;;16.13;9.80;;;;;;;;;;5057214;28;20210;-72
2021/01/13 10:11:43;;;;;;;12.13;8.20;;;;;;;;;;5058791;28;20282;-73
2021/01/13 10:14:13;;;;;;;10.20;7.13;;;;;;;;;;5065767;28;20226;-72
2021/01/13 10:16:41;;;;;;;11.00;6.63;;;;;;;;;;5065220;28;20208;-72
2021/01/13 10:19:09;;;;;;;9.97;7.13;;;;;;;;;;5058833;28;20557;-73
2021/01/13 10:21:36;;;;;;;9.77;6.50;;;;;;;;;;5055196;28;20512;-73
2021/01/13 10:24:04;;;;;;;9.83;6.80;;;;;;;;;;5056058;28;20203;-72
2021/01/13 10:26:36;;;;;;;7.33;5.90;;;;;;;;;;5056148;28;20781;-72
2021/01/13 10:29:04;;;;;;;7.93;6.13;;;;;;;;;;5056117;28;20213;-73
2021/01/13 10:31:31;;;;;;;9.03;6.47;;;;;;;;;;5056822;28;20522;-72
2021/01/13 10:33:58;;;;;;;7.40;5.07;;;;;;;;;;5056669;28;20207;-72
2021/01/13 10:36:49;;;;;;;10.03;6.67;;;;;;;;;;5055689;28;20226;-73
2021/01/13 10:39:18;;;;;;;8.37;6.20;;;;;;;;;;5056695;28;20570;-74
2021/01/13 10:41:47;;;;;;;8.20;6.37;;;;;;;;;;5056433;28;20290;-73
2021/01/13 10:44:16;;;;;;;9.60;7.47;;;;;;;;;;5058446;28;20469;-70
2021/01/13 10:46:48;;;;;;;12.07;8.03;;;;;;;;;;5055054;28;20291;-70
2021/01/13 10:49:29;;;;;;;9.87;6.80;;;;;;;;;;5052180;28;21000;-70
2021/01/13 10:51:57;;;;;;;8.23;6.40;;;;;;;;;;5060562;28;20233;-70
2021/01/13 10:54:24;;;;;;;7.63;5.87;;;;;;;;;;5060189;28;20258;-70
2021/01/13 10:56:53;;;;;;;9.40;6.63;;;;;;;;;;5044208;28;20469;-71
2021/01/13 10:59:21;;;;;;;8.70;6.63;;;;;;;;;;5057505;28;20199;-72
2021/01/13 11:01:49;;;;;;;9.23;6.77;;;;;;;;;;5055077;28;20960;-72
2021/01/13 11:04:21;;;;;;;7.40;5.87;;;;;;;;;;5051740;28;21063;-72
2021/01/13 11:06:48;;;;;;;10.17;6.80;;;;;;;;;;5037010;28;20640;-72
2021/01/13 11:09:16;;;;;;;9.07;6.80;;;;;;;;;;5043214;28;20457;-72
2021/01/13 11:11:43;;;;;;;10.03;7.20;;;;;;;;;;5039799;28;20468;-68
2021/01/13 11:14:12;;;;;;;10.73;7.13;;;;;;;;;;5044465;28;20477;-67
2021/01/13 11:16:58;;;;;;;8.53;6.20;;;;;;;;;;5059698;28;20227;-67
2021/01/13 11:19:25;;;;;;;8.60;7.33;;;;;;;;;;5054149;28;20210;-69
2021/01/13 11:21:54;;;;;;;10.10;6.43;;;;;;;;;;5042754;28;20497;-67
2021/01/13 11:24:27;;;;;;;8.73;6.40;;;;;;;;;;5048606;28;20507;-71
2021/01/13 11:26:56;;;;;;;11.27;8.03;;;;;;;;;;5059905;28;20457;-71
2021/01/13 11:29:26;;;;;;;9.57;7.37;;;;;;;;;;5053999;28;20227;-72
2021/01/13 11:31:53;;;;;;;10.93;6.80;;;;;;;;;;5052236;28;20209;-72
2021/01/13 11:34:20;;;;;;;9.27;7.23;;;;;;;;;;5049049;28;20230;-72
2021/01/13 11:36:51;;;;;;;7.77;6.47;;;;;;;;;;5049975;28;20466;-72
2021/01/13 11:39:25;;;;;;;10.93;6.23;;;;;;;;;;5053201;28;20230;-72
2021/01/13 11:41:54;;;;;;;8.90;6.80;;;;;;;;;;5058298;28;20456;-72
2021/01/13 11:44:31;;;;;;;13.10;7.37;;;;;;;;;;5052572;28;20226;-72
2021/01/13 11:47:18;;;;;;;9.87;7.90;;;;;;;;;;5065549;28;20653;-72
2021/01/13 11:49:52;;;;;;;9.40;6.97;;;;;;;;;;5055879;28;20545;-72
2021/01/13 11:52:20;;;;;;;10.87;7.30;;;;;;;;;;5053877;28;20642;-72
2021/01/13 11:54:48;;;;;;;10.03;7.60;;;;;;;;;;5057316;28;20258;-73
2021/01/13 11:57:16;;;;;;;9.93;6.97;;;;;;;;;;5055426;28;20678;-74
2021/01/13 11:59:45;;;;;;;10.50;7.87;;;;;;;;;;5064133;28;20616;-73
2021/01/13 12:02:17;;;;;;;10.37;7.60;;;;;;;;;;5059391;28;20328;-73
2021/01/13 12:04:46;;;;;;;12.73;8.30;;;;;;;;;;5059148;28;20589;-73
2021/01/13 12:07:13;;;;;;;11.67;8.47;;;;;;;;;;5059205;28;20628;-74
2021/01/13 12:09:40;;;;;;;13.43;7.67;;;;;;;;;;5059538;28;20453;-73
2021/01/13 12:12:08;;;;;;;8.40;6.23;;;;;;;;;;5058656;28;20246;-73
2021/01/13 12:14:39;;;;;;;8.83;7.23;;;;;;;;;;5058501;28;20223;-73
2021/01/13 12:17:07;;;;;;;12.40;7.87;;;;;;;;;;5059095;28;20207;-73
2021/01/13 12:19:35;;;;;;;10.13;7.20;;;;;;;;;;5058845;28;20462;-74
2021/01/13 12:22:02;;;;;;;10.07;7.83;;;;;;;;;;5058918;28;20225;-74
2021/01/13 12:24:36;;;;;;;9.43;6.80;;;;;;;;;;5058950;28;20310;-74
2021/01/13 12:27:26;;;;;;;11.87;7.97;;;;;;;;;;5058812;28;20445;-74
2021/01/13 12:30:09;;;;;;;9.97;7.10;;;;;;;;;;5058136;28;20238;-74
2021/01/13 12:32:37;;;;;;;10.37;7.93;;;;;;;;;;5058459;28;20210;-74
2021/01/13 12:35:05;;;;;;;10.83;7.60;;;;;;;;;;5058375;28;20485;-74
2021/01/13 12:37:44;;;;;;;10.00;7.87;;;;;;;;;;5058306;28;20242;-73
2021/01/13 12:40:12;;;;;;;10.63;7.67;;;;;;;;;;5058588;28;20195;-74
2021/01/13 12:42:39;;;;;;;12.77;8.23;;;;;;;;;;5058369;28;20202;-74
2021/01/13 12:45:10;;;;;;;11.27;8.33;;;;;;;;;;5058177;28;20227;-74
2021/01/13 12:47:38;;;;;;;10.50;8.20;;;;;;;;;;5058392;28;20290;-74
2021/01/13 12:50:07;;;;;;;9.37;7.77;;;;;;;;;;5058578;28;20654;-74
2021/01/13 12:52:34;;;;;;;10.03;8.60;;;;;;;;;;5055854;28;20199;-74
2021/01/13 12:55:01;;;;;;;11.67;8.00;;;;;;;;;;5058309;28;20242;-74
2021/01/13 12:57:28;;;;;;;11.10;8.33;;;;;;;;;;5058103;28;20266;-73
2021/01/13 12:59:55;;;;;;;9.30;7.93;;;;;;;;;;5058069;28;20650;-74
2021/01/13 13:02:22;;;;;;;9.60;7.53;;;;;;;;;;5057978;28;20261;-75
2021/01/13 13:04:52;;;;;;;11.13;8.57;;;;;;;;;;5057992;28;20242;-74
2021/01/13 13:07:19;;;;;;;10.10;7.87;;;;;;;;;;5058002;28;20666;-74
2021/01/13 13:09:49;;;;;;;10.10;8.10;;;;;;;;;;5058039;28;20301;-74
2021/01/13 13:12:16;;;;;;;12.90;8.70;;;;;;;;;;5057984;28;20665;-74
2021/01/13 13:14:44;;;;;;;12.43;7.83;;;;;;;;;;5057875;28;20240;-74
2021/01/13 13:17:11;;;;;;;13.70;8.50;;;;;;;;;;5057951;28;20203;-74
2021/01/13 13:19:38;;;;;;;10.43;8.47;;;;;;;;;;5057236;28;20666;-74
2021/01/13 13:22:07;;;;;;;11.73;7.83;;;;;;;;;;5057932;28;20225;-74
2021/01/13 13:24:34;;;;;;;10.10;8.00;;;;;;;;;;5057537;28;20234;-75
2021/01/13 13:27:03;;;;;;;10.10;8.17;;;;;;;;;;5057955;28;20301;-73
2021/01/13 13:29:30;;;;;;;11.57;8.63;;;;;;;;;;5057525;28;20210;-74
2021/01/13 13:31:58;;;;;;;10.47;9.03;;;;;;;;;;5057827;28;20207;-74
2021/01/13 13:34:25;;;;;;;11.57;8.53;;;;;;;;;;5057114;28;20295;-74
2021/01/13 13:36:57;;;;;;;14.67;9.10;;;;;;;;;;5057368;28;20287;-74
2021/01/13 13:39:25;;;;;;;12.00;8.80;;;;;;;;;;5057012;28;20242;-74
2021/01/13 13:41:56;;;;;;;11.27;8.70;;;;;;;;;;5057210;28;20275;-74
2021/01/13 13:44:23;;;;;;;10.60;8.07;;;;;;;;;;5057654;28;20238;-74
2021/01/13 13:46:50;;;;;;;10.87;9.27;;;;;;;;;;5057334;28;20229;-73
2021/01/13 13:49:18;;;;;;;11.60;8.70;;;;;;;;;;5057193;28;20208;-73
2021/01/13 13:51:45;;;;;;;12.97;8.77;;;;;;;;;;5056894;28;20278;-73
2021/01/13 13:54:12;;;;;;;14.43;10.00;;;;;;;;;;5057787;28;20233;-74
2021/01/13 13:56:40;;;;;;;11.40;9.17;;;;;;;;;;5056997;28;20223;-74
2021/01/13 13:59:08;;;;;;;15.37;9.90;;;;;;;;;;5057311;28;20211;-73
2021/01/13 14:01:35;;;;;;;14.00;9.77;;;;;;;;;;5057311;28;20225;-73
2021/01/13 14:04:03;;;;;;;14.03;9.70;;;;;;;;;;5056900;28;20210;-73
2021/01/13 14:06:30;;;;;;;15.03;10.23;;;;;;;;;;5057668;28;20237;-72
2021/01/13 14:08:57;;;;;;;13.63;10.17;;;;;;;;;;5057055;28;20210;-72
2021/01/13 14:11:26;;;;;;;20.50;11.43;;;;;;;;;;5057033;28;20210;-74
2021/01/13 14:13:54;;;;;;;18.67;11.30;;;;;;;;;;5057045;28;20260;-74
2021/01/13 14:16:27;;;;;;;20.77;13.00;;;;;;;;;;5057076;28;20230;-74
2021/01/13 14:18:54;;;;;;;19.03;13.37;;;;;;;;;;5056886;28;20286;-73
2021/01/13 14:21:22;;;;;;;22.47;13.53;;;;;;;;;;5056740;28;20211;-74
2021/01/13 14:23:52;;;;;;;25.33;14.17;;;;;;;;;;5059851;28;20623;-74
2021/01/13 14:26:19;;;;;;;23.63;14.57;;;;;;;;;;5061358;28;20206;-74
2021/01/13 14:28:46;;;;;;;24.27;13.77;;;;;;;;;;5060931;28;20229;-74
2021/01/13 14:31:15;;;;;;;25.07;14.40;;;;;;;;;;5061203;28;20240;-73
2021/01/13 14:33:42;;;;;;;23.00;13.10;;;;;;;;;;5060684;28;20558;-74
2021/01/13 14:36:13;;;;;;;25.83;14.00;;;;;;;;;;5060742;28;20231;-74
2021/01/13 14:38:41;;;;;;;22.63;14.17;;;;;;;;;;5060778;28;20238;-74
2021/01/13 14:41:10;;;;;;;21.73;13.37;;;;;;;;;;5060429;28;20207;-74
2021/01/13 14:43:40;;;;;;;25.17;13.93;;;;;;;;;;5060573;28;20215;-74
2021/01/13 14:46:08;;;;;;;26.73;14.27;;;;;;;;;;5060567;28;20218;-73
2021/01/13 14:48:36;;;;;;;23.70;13.97;;;;;;;;;;5060575;28;20571;-72